sensor_id;sensor_type;location;lat;lon;timestamp;pressure;altitude;pressure_sealevel;temperature;humidity
69879;BME280;57161;43.136;24.706;2022-12-29T00:01:25;100282.41;;;5.35;62.85
69879;BME280;57161;43.136;24.706;2022-12-29T00:03:51;100275.66;;;5.21;62.99
69879;BME280;57161;43.136;24.706;2022-12-29T00:06:16;100282.44;;;5.20;63.11
69879;BME280;57161;43.136;24.706;2022-12-29T00:08:42;100269.53;;;5.17;63.00
69879;BME280;57161;43.136;24.706;2022-12-29T00:11:09;100296.75;;;5.33;63.05
69879;BME280;57161;43.136;24.706;2022-12-29T00:13:35;100289.19;;;5.34;63.00
69879;BME280;57161;43.136;24.706;2022-12-29T00:16:19;100291.91;;;5.49;63.18
69879;BME280;57161;43.136;24.706;2022-12-29T00:18:45;100262.72;;;5.33;62.75
69879;BME280;57161;43.136;24.706;2022-12-29T00:21:14;100305.41;;;5.56;62.66
69879;BME280;57161;43.136;24.706;2022-12-29T00:23:59;100300.03;;;5.52;62.83
69879;BME280;57161;43.136;24.706;2022-12-29T00:29:46;100314.47;;;5.56;62.81
69879;BME280;57161;43.136;24.706;2022-12-29T00:32:30;100296.81;;;5.54;62.60
69879;BME280;57161;43.136;24.706;2022-12-29T00:35:25;100290.28;;;5.57;62.41
69879;BME280;57161;43.136;24.706;2022-12-29T00:37:52;100251.81;;;5.44;62.01
69879;BME280;57161;43.136;24.706;2022-12-29T00:40:37;100287.94;;;5.70;62.06
69879;BME280;57161;43.136;24.706;2022-12-29T00:43:21;100287.25;;;5.55;62.13
69879;BME280;57161;43.136;24.706;2022-12-29T00:46:05;100275.28;;;5.49;62.25
69879;BME280;57161;43.136;24.706;2022-12-29T00:48:30;100279.09;;;5.51;62.03
69879;BME280;57161;43.136;24.706;2022-12-29T00:51:14;100239.72;;;5.27;62.06
69879;BME280;57161;43.136;24.706;2022-12-29T00:53:40;100302.69;;;5.61;62.17
69879;BME280;57161;43.136;24.706;2022-12-29T00:56:06;100290.50;;;5.53;62.28
69879;BME280;57161;43.136;24.706;2022-12-29T00:58:31;100276.03;;;5.29;62.67
69879;BME280;57161;43.136;24.706;2022-12-29T01:01:07;100303.63;;;5.38;62.77
69879;BME280;57161;43.136;24.706;2022-12-29T01:03:37;100297.03;;;5.35;62.74
69879;BME280;57161;43.136;24.706;2022-12-29T01:06:05;100283.09;;;5.30;63.04
69879;BME280;57161;43.136;24.706;2022-12-29T01:08:31;100266.09;;;5.22;62.63
69879;BME280;57161;43.136;24.706;2022-12-29T01:13:25;100275.44;;;5.39;61.73
69879;BME280;57161;43.136;24.706;2022-12-29T01:15:51;100287.59;;;5.62;61.26
69879;BME280;57161;43.136;24.706;2022-12-29T01:18:17;100232.13;;;5.07;61.68
69879;BME280;57161;43.136;24.706;2022-12-29T01:20:42;100294.59;;;5.58;61.51
69879;BME280;57161;43.136;24.706;2022-12-29T01:23:08;100262.94;;;5.50;61.13
69879;BME280;57161;43.136;24.706;2022-12-29T01:25:33;100245.81;;;5.31;61.06
69879;BME280;57161;43.136;24.706;2022-12-29T01:27:59;100265.69;;;5.64;60.84
69879;BME280;57161;43.136;24.706;2022-12-29T01:30:24;100188.81;;;5.24;61.21
69879;BME280;57161;43.136;24.706;2022-12-29T01:32:49;100227.34;;;5.63;61.17
69879;BME280;57161;43.136;24.706;2022-12-29T01:35:15;100263.66;;;5.85;61.09
69879;BME280;57161;43.136;24.706;2022-12-29T01:37:40;100256.53;;;5.79;61.42
69879;BME280;57161;43.136;24.706;2022-12-29T01:40:06;100221.94;;;5.54;61.94
69879;BME280;57161;43.136;24.706;2022-12-29T01:42:32;100247.56;;;5.69;62.37
69879;BME280;57161;43.136;24.706;2022-12-29T01:45:00;100245.78;;;5.66;62.53
69879;BME280;57161;43.136;24.706;2022-12-29T01:47:30;100238.09;;;5.55;62.74
69879;BME280;57161;43.136;24.706;2022-12-29T01:49:59;100230.38;;;5.45;63.34
69879;BME280;57161;43.136;24.706;2022-12-29T01:52:28;100221.16;;;5.33;63.74
69879;BME280;57161;43.136;24.706;2022-12-29T01:54:55;100202.78;;;5.35;63.63
69879;BME280;57161;43.136;24.706;2022-12-29T01:57:27;100203.63;;;5.41;63.54
69879;BME280;57161;43.136;24.706;2022-12-29T02:00:09;100195.59;;;5.43;63.60
69879;BME280;57161;43.136;24.706;2022-12-29T02:02:36;100217.28;;;5.65;63.52
69879;BME280;57161;43.136;24.706;2022-12-29T02:05:11;100178.97;;;5.43;63.07
69879;BME280;57161;43.136;24.706;2022-12-29T02:07:40;100172.66;;;5.43;62.96
69879;BME280;57161;43.136;24.706;2022-12-29T02:10:06;100200.59;;;5.60;63.00
69879;BME280;57161;43.136;24.706;2022-12-29T02:12:32;100204.94;;;5.66;62.99
69879;BME280;57161;43.136;24.706;2022-12-29T02:14:59;100193.47;;;5.53;62.68
69879;BME280;57161;43.136;24.706;2022-12-29T02:20:30;100202.66;;;5.65;63.04
69879;BME280;57161;43.136;24.706;2022-12-29T02:26:14;100201.59;;;5.83;63.33
69879;BME280;57161;43.136;24.706;2022-12-29T02:37:06;100182.16;;;5.77;63.58
69879;BME280;57161;43.136;24.706;2022-12-29T02:39:57;100188.31;;;5.87;63.77
69879;BME280;57161;43.136;24.706;2022-12-29T02:45:31;100185.34;;;5.90;64.30
69879;BME280;57161;43.136;24.706;2022-12-29T02:48:10;100156.38;;;5.71;64.34
69879;BME280;57161;43.136;24.706;2022-12-29T02:50:51;100150.25;;;5.67;64.59
69879;BME280;57161;43.136;24.706;2022-12-29T02:53:20;100171.81;;;5.78;64.87
69879;BME280;57161;43.136;24.706;2022-12-29T02:56:06;100178.88;;;5.79;65.01
69879;BME280;57161;43.136;24.706;2022-12-29T02:58:32;100155.88;;;5.52;64.54
69879;BME280;57161;43.136;24.706;2022-12-29T03:03:53;100179.88;;;5.55;64.86
69879;BME280;57161;43.136;24.706;2022-12-29T03:06:46;100169.75;;;5.52;65.07
69879;BME280;57161;43.136;24.706;2022-12-29T03:09:33;100161.16;;;5.50;65.31
69879;BME280;57161;43.136;24.706;2022-12-29T03:12:17;100170.88;;;5.40;65.86
69879;BME280;57161;43.136;24.706;2022-12-29T03:15:05;100164.75;;;5.36;65.69
69879;BME280;57161;43.136;24.706;2022-12-29T03:18:02;100163.72;;;5.33;65.55
69879;BME280;57161;43.136;24.706;2022-12-29T03:20:49;100101.63;;;4.85;65.93
69879;BME280;57161;43.136;24.706;2022-12-29T03:23:16;100161.31;;;5.21;66.00
69879;BME280;57161;43.136;24.706;2022-12-29T03:25:47;100148.34;;;5.12;65.69
69879;BME280;57161;43.136;24.706;2022-12-29T03:28:23;100157.06;;;5.05;66.02
69879;BME280;57161;43.136;24.706;2022-12-29T03:30:50;100114.56;;;4.73;65.51
69879;BME280;57161;43.136;24.706;2022-12-29T03:33:20;100161.19;;;4.95;65.03
69879;BME280;57161;43.136;24.706;2022-12-29T03:35:49;100112.78;;;4.55;64.46
69879;BME280;57161;43.136;24.706;2022-12-29T03:38:27;100162.25;;;4.82;64.81
69879;BME280;57161;43.136;24.706;2022-12-29T03:40:59;100150.38;;;4.62;65.06
69879;BME280;57161;43.136;24.706;2022-12-29T03:43:26;100177.19;;;4.70;64.40
69879;BME280;57161;43.136;24.706;2022-12-29T03:45:52;100103.00;;;4.25;64.28
69879;BME280;57161;43.136;24.706;2022-12-29T03:48:18;100172.53;;;4.62;64.81
69879;BME280;57161;43.136;24.706;2022-12-29T03:50:43;100177.31;;;4.61;65.38
69879;BME280;57161;43.136;24.706;2022-12-29T03:53:09;100140.31;;;4.29;65.33
69879;BME280;57161;43.136;24.706;2022-12-29T03:55:34;100166.44;;;4.43;66.46
69879;BME280;57161;43.136;24.706;2022-12-29T03:58:00;100170.16;;;4.40;65.67
69879;BME280;57161;43.136;24.706;2022-12-29T04:00:25;100171.59;;;4.35;65.47
69879;BME280;57161;43.136;24.706;2022-12-29T04:02:50;100183.06;;;4.43;65.16
69879;BME280;57161;43.136;24.706;2022-12-29T04:05:16;100188.00;;;4.39;65.08
69879;BME280;57161;43.136;24.706;2022-12-29T04:07:41;100197.25;;;4.36;65.42
69879;BME280;57161;43.136;24.706;2022-12-29T04:10:07;100189.63;;;4.31;64.81
69879;BME280;57161;43.136;24.706;2022-12-29T04:12:33;100189.91;;;4.33;64.86
69879;BME280;57161;43.136;24.706;2022-12-29T04:14:58;100207.19;;;4.28;65.08
69879;BME280;57161;43.136;24.706;2022-12-29T04:17:23;100163.19;;;4.00;65.04
69879;BME280;57161;43.136;24.706;2022-12-29T04:19:49;100151.75;;;3.92;65.44
69879;BME280;57161;43.136;24.706;2022-12-29T04:22:15;100175.22;;;4.12;64.91
69879;BME280;57161;43.136;24.706;2022-12-29T04:24:40;100188.66;;;4.19;64.96
69879;BME280;57161;43.136;24.706;2022-12-29T04:27:06;100183.03;;;4.13;64.81
69879;BME280;57161;43.136;24.706;2022-12-29T04:29:31;100192.88;;;4.14;64.82
69879;BME280;57161;43.136;24.706;2022-12-29T04:31:57;100167.38;;;3.96;65.25
69879;BME280;57161;43.136;24.706;2022-12-29T04:34:22;100190.47;;;4.07;65.22
69879;BME280;57161;43.136;24.706;2022-12-29T04:36:48;100200.59;;;4.10;65.39
69879;BME280;57161;43.136;24.706;2022-12-29T04:39:13;100187.41;;;3.90;65.67
69879;BME280;57161;43.136;24.706;2022-12-29T04:41:39;100182.72;;;3.82;65.94
69879;BME280;57161;43.136;24.706;2022-12-29T04:44:04;100186.03;;;3.86;66.15
69879;BME280;57161;43.136;24.706;2022-12-29T04:46:29;100174.94;;;3.71;66.15
69879;BME280;57161;43.136;24.706;2022-12-29T04:48:55;100187.38;;;3.76;66.78
69879;BME280;57161;43.136;24.706;2022-12-29T04:51:20;100205.59;;;3.82;66.63
69879;BME280;57161;43.136;24.706;2022-12-29T04:53:46;100186.47;;;3.70;66.80
69879;BME280;57161;43.136;24.706;2022-12-29T04:56:11;100217.69;;;3.85;66.23
69879;BME280;57161;43.136;24.706;2022-12-29T04:58:38;100219.59;;;3.79;66.82
69879;BME280;57161;43.136;24.706;2022-12-29T05:01:03;100189.81;;;3.59;66.96
69879;BME280;57161;43.136;24.706;2022-12-29T05:03:29;100211.94;;;3.74;66.84
69879;BME280;57161;43.136;24.706;2022-12-29T05:05:55;100212.59;;;3.69;66.95
69879;BME280;57161;43.136;24.706;2022-12-29T05:08:21;100214.13;;;3.70;67.21
69879;BME280;57161;43.136;24.706;2022-12-29T05:10:46;100187.69;;;3.54;67.75
69879;BME280;57161;43.136;24.706;2022-12-29T05:13:12;100216.69;;;3.73;68.04
69879;BME280;57161;43.136;24.706;2022-12-29T05:15:38;100208.31;;;3.68;68.00
69879;BME280;57161;43.136;24.706;2022-12-29T05:18:03;100185.94;;;3.42;67.60
69879;BME280;57161;43.136;24.706;2022-12-29T05:20:29;100222.41;;;3.70;68.07
69879;BME280;57161;43.136;24.706;2022-12-29T05:22:54;100219.66;;;3.70;68.52
69879;BME280;57161;43.136;24.706;2022-12-29T05:25:20;100221.84;;;3.66;68.60
69879;BME280;57161;43.136;24.706;2022-12-29T05:27:45;100206.06;;;3.57;68.90
69879;BME280;57161;43.136;24.706;2022-12-29T05:30:11;100207.72;;;3.64;69.41
69879;BME280;57161;43.136;24.706;2022-12-29T05:32:37;100193.69;;;3.52;70.30
69879;BME280;57161;43.136;24.706;2022-12-29T05:35:02;100212.25;;;3.52;70.45
69879;BME280;57161;43.136;24.706;2022-12-29T05:37:28;100202.25;;;3.54;70.43
69879;BME280;57161;43.136;24.706;2022-12-29T05:39:53;100214.22;;;3.60;70.29
69879;BME280;57161;43.136;24.706;2022-12-29T05:42:19;100215.31;;;3.54;70.02
69879;BME280;57161;43.136;24.706;2022-12-29T05:44:44;100228.31;;;3.63;69.05
69879;BME280;57161;43.136;24.706;2022-12-29T05:47:09;100202.66;;;3.38;69.17
69879;BME280;57161;43.136;24.706;2022-12-29T05:49:35;100206.81;;;3.43;69.07
69879;BME280;57161;43.136;24.706;2022-12-29T05:52:00;100221.19;;;3.47;69.13
69879;BME280;57161;43.136;24.706;2022-12-29T05:54:26;100221.78;;;3.51;69.46
69879;BME280;57161;43.136;24.706;2022-12-29T05:56:51;100178.41;;;3.18;69.24
69879;BME280;57161;43.136;24.706;2022-12-29T05:59:17;100240.47;;;3.56;69.41
69879;BME280;57161;43.136;24.706;2022-12-29T06:01:42;100221.06;;;3.41;69.16
69879;BME280;57161;43.136;24.706;2022-12-29T06:04:07;100207.03;;;3.30;68.47
69879;BME280;57161;43.136;24.706;2022-12-29T06:06:33;100242.59;;;3.37;68.76
69879;BME280;57161;43.136;24.706;2022-12-29T06:08:58;100247.16;;;3.40;69.28
69879;BME280;57161;43.136;24.706;2022-12-29T06:11:24;100231.75;;;3.24;69.05
69879;BME280;57161;43.136;24.706;2022-12-29T06:13:49;100258.97;;;3.41;68.94
69879;BME280;57161;43.136;24.706;2022-12-29T06:16:15;100229.06;;;3.15;69.09
69879;BME280;57161;43.136;24.706;2022-12-29T06:18:40;100239.75;;;3.22;69.28
69879;BME280;57161;43.136;24.706;2022-12-29T06:21:06;100256.09;;;3.35;68.80
69879;BME280;57161;43.136;24.706;2022-12-29T06:23:31;100235.75;;;3.23;69.28
69879;BME280;57161;43.136;24.706;2022-12-29T06:25:57;100265.28;;;3.41;69.46
69879;BME280;57161;43.136;24.706;2022-12-29T06:28:23;100248.88;;;3.38;69.38
69879;BME280;57161;43.136;24.706;2022-12-29T06:30:49;100228.94;;;3.34;68.89
69879;BME280;57161;43.136;24.706;2022-12-29T06:33:15;100251.78;;;3.43;68.67
69879;BME280;57161;43.136;24.706;2022-12-29T06:35:42;100234.28;;;3.37;68.69
69879;BME280;57161;43.136;24.706;2022-12-29T06:38:08;100255.88;;;3.48;68.61
69879;BME280;57161;43.136;24.706;2022-12-29T06:40:33;100271.59;;;3.66;68.62
69879;BME280;57161;43.136;24.706;2022-12-29T06:42:59;100251.94;;;3.64;68.51
69879;BME280;57161;43.136;24.706;2022-12-29T06:45:24;100262.63;;;3.71;68.75
69879;BME280;57161;43.136;24.706;2022-12-29T06:47:50;100251.47;;;3.65;69.06
69879;BME280;57161;43.136;24.706;2022-12-29T06:50:15;100267.16;;;3.83;68.89
69879;BME280;57161;43.136;24.706;2022-12-29T06:52:41;100274.81;;;3.88;69.00
69879;BME280;57161;43.136;24.706;2022-12-29T06:55:06;100268.50;;;3.87;68.96
69879;BME280;57161;43.136;24.706;2022-12-29T06:57:32;100285.16;;;4.02;68.74
69879;BME280;57161;43.136;24.706;2022-12-29T06:59:57;100274.56;;;4.01;68.56
69879;BME280;57161;43.136;24.706;2022-12-29T07:02:23;100298.69;;;4.24;68.39
69879;BME280;57161;43.136;24.706;2022-12-29T07:04:51;100277.78;;;4.23;67.88
69879;BME280;57161;43.136;24.706;2022-12-29T07:07:18;100273.09;;;4.29;67.25
69879;BME280;57161;43.136;24.706;2022-12-29T07:09:43;100277.00;;;4.37;66.72
69879;BME280;57161;43.136;24.706;2022-12-29T07:12:09;100295.28;;;4.59;66.13
69879;BME280;57161;43.136;24.706;2022-12-29T07:14:34;100274.47;;;4.48;65.67
69879;BME280;57161;43.136;24.706;2022-12-29T07:17:01;100242.56;;;4.38;65.14
69879;BME280;57161;43.136;24.706;2022-12-29T07:19:27;100301.59;;;4.89;65.13
69879;BME280;57161;43.136;24.706;2022-12-29T07:21:54;100269.00;;;4.83;65.01
69879;BME280;57161;43.136;24.706;2022-12-29T07:24:20;100296.50;;;5.02;65.46
69879;BME280;57161;43.136;24.706;2022-12-29T07:26:45;100273.97;;;4.94;65.56
69879;BME280;57161;43.136;24.706;2022-12-29T07:29:10;100279.03;;;4.96;65.41
69879;BME280;57161;43.136;24.706;2022-12-29T07:31:36;100301.81;;;5.20;65.26
69879;BME280;57161;43.136;24.706;2022-12-29T07:34:01;100290.75;;;5.20;65.33
69879;BME280;57161;43.136;24.706;2022-12-29T07:36:27;100306.09;;;5.36;64.94
69879;BME280;57161;43.136;24.706;2022-12-29T07:38:52;100252.84;;;5.11;64.76
69879;BME280;57161;43.136;24.706;2022-12-29T07:41:18;100297.63;;;5.60;64.48
69879;BME280;57161;43.136;24.706;2022-12-29T07:43:47;100301.44;;;5.62;64.28
69879;BME280;57161;43.136;24.706;2022-12-29T07:46:13;100292.84;;;5.60;64.21
69879;BME280;57161;43.136;24.706;2022-12-29T07:48:38;100300.63;;;5.56;64.52
69879;BME280;57161;43.136;24.706;2022-12-29T07:51:04;100263.69;;;5.30;64.80
69879;BME280;57161;43.136;24.706;2022-12-29T07:53:29;100286.75;;;5.56;64.47
69879;BME280;57161;43.136;24.706;2022-12-29T07:55:55;100262.50;;;5.36;64.83
69879;BME280;57161;43.136;24.706;2022-12-29T07:58:21;100279.72;;;5.40;65.04
69879;BME280;57161;43.136;24.706;2022-12-29T08:00:46;100278.09;;;5.34;65.18
69879;BME280;57161;43.136;24.706;2022-12-29T08:03:12;100276.78;;;5.29;65.31
69879;BME280;57161;43.136;24.706;2022-12-29T08:05:37;100295.22;;;5.32;65.24
69879;BME280;57161;43.136;24.706;2022-12-29T08:08:03;100292.72;;;5.34;65.74
69879;BME280;57161;43.136;24.706;2022-12-29T08:10:28;100281.66;;;5.20;66.06
69879;BME280;57161;43.136;24.706;2022-12-29T08:12:54;100266.50;;;5.00;66.08
69879;BME280;57161;43.136;24.706;2022-12-29T08:15:19;100284.81;;;5.27;66.17
69879;BME280;57161;43.136;24.706;2022-12-29T08:17:45;100283.28;;;5.26;65.99
69879;BME280;57161;43.136;24.706;2022-12-29T08:20:13;100231.69;;;4.94;66.02
69879;BME280;57161;43.136;24.706;2022-12-29T08:22:38;100269.59;;;5.37;65.83
69879;BME280;57161;43.136;24.706;2022-12-29T08:25:04;100289.31;;;5.60;65.59
69879;BME280;57161;43.136;24.706;2022-12-29T08:27:29;100273.03;;;5.67;65.23
69879;BME280;57161;43.136;24.706;2022-12-29T08:29:55;100279.94;;;5.92;64.67
69879;BME280;57161;43.136;24.706;2022-12-29T08:32:20;100275.19;;;5.98;64.25
69879;BME280;57161;43.136;24.706;2022-12-29T08:34:46;100261.59;;;6.00;64.19
69879;BME280;57161;43.136;24.706;2022-12-29T08:37:11;100256.81;;;6.21;63.73
69879;BME280;57161;43.136;24.706;2022-12-29T08:39:37;100273.19;;;6.45;63.12
69879;BME280;57161;43.136;24.706;2022-12-29T08:42:02;100275.56;;;6.52;63.00
69879;BME280;57161;43.136;24.706;2022-12-29T08:44:28;100257.63;;;6.53;62.95
69879;BME280;57161;43.136;24.706;2022-12-29T08:46:53;100276.50;;;6.75;62.85
69879;BME280;57161;43.136;24.706;2022-12-29T08:49:19;100235.31;;;6.68;62.73
69879;BME280;57161;43.136;24.706;2022-12-29T08:51:44;100252.63;;;6.89;62.57
69879;BME280;57161;43.136;24.706;2022-12-29T08:54:10;100256.53;;;7.03;62.31
69879;BME280;57161;43.136;24.706;2022-12-29T08:56:35;100260.44;;;7.16;61.18
69879;BME280;57161;43.136;24.706;2022-12-29T08:59:01;100256.66;;;7.19;60.19
69879;BME280;57161;43.136;24.706;2022-12-29T09:01:26;100230.13;;;7.18;59.92
69879;BME280;57161;43.136;24.706;2022-12-29T09:03:53;100249.22;;;7.48;59.19
69879;BME280;57161;43.136;24.706;2022-12-29T09:06:19;100204.66;;;7.31;58.87
69879;BME280;57161;43.136;24.706;2022-12-29T09:08:45;100238.69;;;7.63;58.65
69879;BME280;57161;43.136;24.706;2022-12-29T09:13:36;100256.31;;;8.08;57.06
69879;BME280;57161;43.136;24.706;2022-12-29T09:16:01;100234.34;;;8.16;56.67
69879;BME280;57161;43.136;24.706;2022-12-29T09:18:27;100238.16;;;8.24;56.03
69879;BME280;57161;43.136;24.706;2022-12-29T09:21:00;100238.22;;;8.35;55.48
69879;BME280;57161;43.136;24.706;2022-12-29T09:23:27;100216.19;;;8.37;54.46
69879;BME280;57161;43.136;24.706;2022-12-29T09:25:53;100209.38;;;8.50;53.84
69879;BME280;57161;43.136;24.706;2022-12-29T09:28:19;100230.38;;;8.73;53.52
69879;BME280;57161;43.136;24.706;2022-12-29T09:30:44;100211.41;;;8.83;52.11
69879;BME280;57161;43.136;24.706;2022-12-29T09:33:09;100227.34;;;9.05;51.99
69879;BME280;57161;43.136;24.706;2022-12-29T09:35:35;100207.53;;;9.19;51.31
69879;BME280;57161;43.136;24.706;2022-12-29T09:38:01;100208.53;;;9.33;50.65
69879;BME280;57161;43.136;24.706;2022-12-29T09:40:29;100190.28;;;9.26;50.53
69879;BME280;57161;43.136;24.706;2022-12-29T09:46:24;100200.38;;;9.46;50.19
69879;BME280;57161;43.136;24.706;2022-12-29T09:49:04;100161.16;;;9.27;49.74
69879;BME280;57161;43.136;24.706;2022-12-29T09:51:32;100165.94;;;9.32;49.73
69879;BME280;57161;43.136;24.706;2022-12-29T09:54:04;100180.59;;;9.50;49.72
69879;BME280;57161;43.136;24.706;2022-12-29T09:56:42;100168.19;;;9.45;49.38
69879;BME280;57161;43.136;24.706;2022-12-29T09:59:15;100171.88;;;9.70;49.39
69879;BME280;57161;43.136;24.706;2022-12-29T10:01:57;100166.47;;;9.83;48.90
69879;BME280;57161;43.136;24.706;2022-12-29T10:04:26;100156.06;;;9.84;48.97
69879;BME280;57161;43.136;24.706;2022-12-29T10:07:03;100164.31;;;10.06;48.94
69879;BME280;57161;43.136;24.706;2022-12-29T10:12:09;100164.22;;;10.23;49.24
69879;BME280;57161;43.136;24.706;2022-12-29T10:17:49;100167.50;;;10.57;48.17
69879;BME280;57161;43.136;24.706;2022-12-29T10:20:31;100168.16;;;10.74;48.09
69879;BME280;57161;43.136;24.706;2022-12-29T10:25:44;100162.66;;;10.88;47.38
69879;BME280;57161;43.136;24.706;2022-12-29T10:28:22;100154.25;;;10.93;48.05
69879;BME280;57161;43.136;24.706;2022-12-29T10:30:49;100143.00;;;10.99;48.02
69879;BME280;57161;43.136;24.706;2022-12-29T10:33:19;100136.31;;;11.07;47.99
69879;BME280;57161;43.136;24.706;2022-12-29T10:35:50;100126.09;;;11.10;47.55
69879;BME280;57161;43.136;24.706;2022-12-29T10:38:35;100143.31;;;11.38;47.52
69879;BME280;57161;43.136;24.706;2022-12-29T10:43:45;100121.00;;;11.33;46.88
69879;BME280;57161;43.136;24.706;2022-12-29T10:46:19;100127.56;;;11.35;47.45
69879;BME280;57161;43.136;24.706;2022-12-29T10:48:46;100116.47;;;11.30;47.57
69879;BME280;57161;43.136;24.706;2022-12-29T10:51:20;100132.38;;;11.40;47.50
69879;BME280;57161;43.136;24.706;2022-12-29T10:54:15;100132.22;;;11.52;47.55
69879;BME280;57161;43.136;24.706;2022-12-29T10:56:47;100112.16;;;11.48;47.66
69879;BME280;57161;43.136;24.706;2022-12-29T10:59:22;100114.88;;;11.53;47.71
69879;BME280;57161;43.136;24.706;2022-12-29T11:05:07;100115.72;;;11.67;47.82
69879;BME280;57161;43.136;24.706;2022-12-29T11:07:35;100122.78;;;11.73;48.29
69879;BME280;57161;43.136;24.706;2022-12-29T11:10:35;100112.63;;;11.70;48.62
69879;BME280;57161;43.136;24.706;2022-12-29T11:13:25;100108.72;;;11.79;48.11
69879;BME280;57161;43.136;24.706;2022-12-29T11:15:51;100102.28;;;11.84;48.61
69879;BME280;57161;43.136;24.706;2022-12-29T11:18:37;100104.69;;;11.93;48.00
69879;BME280;57161;43.136;24.706;2022-12-29T11:21:06;100102.66;;;11.94;48.30
69879;BME280;57161;43.136;24.706;2022-12-29T11:23:40;100087.84;;;11.80;48.38
69879;BME280;57161;43.136;24.706;2022-12-29T11:28:33;100085.94;;;11.88;49.03
69879;BME280;57161;43.136;24.706;2022-12-29T11:31:00;100103.72;;;11.91;49.17
69879;BME280;57161;43.136;24.706;2022-12-29T11:33:28;100077.16;;;11.79;49.73
69879;BME280;57161;43.136;24.706;2022-12-29T11:36:05;100083.38;;;11.90;49.41
69879;BME280;57161;43.136;24.706;2022-12-29T11:38:37;100098.78;;;11.97;49.33
69879;BME280;57161;43.136;24.706;2022-12-29T11:41:05;100091.00;;;11.90;49.72
69879;BME280;57161;43.136;24.706;2022-12-29T11:43:41;100082.91;;;11.86;49.57
69879;BME280;57161;43.136;24.706;2022-12-29T11:46:17;100093.56;;;12.07;49.53
69879;BME280;57161;43.136;24.706;2022-12-29T11:48:46;100063.13;;;11.97;49.45
69879;BME280;57161;43.136;24.706;2022-12-29T11:51:21;100063.19;;;12.11;49.21
69879;BME280;57161;43.136;24.706;2022-12-29T11:53:51;100096.31;;;12.25;49.25
69879;BME280;57161;43.136;24.706;2022-12-29T11:56:22;100068.78;;;12.11;49.41
69879;BME280;57161;43.136;24.706;2022-12-29T11:58:55;100081.97;;;12.29;49.49
69879;BME280;57161;43.136;24.706;2022-12-29T12:01:35;100087.19;;;12.38;49.07
69879;BME280;57161;43.136;24.706;2022-12-29T12:04:06;100085.44;;;12.35;49.18
69879;BME280;57161;43.136;24.706;2022-12-29T12:06:38;100087.47;;;12.35;49.16
69879;BME280;57161;43.136;24.706;2022-12-29T12:09:25;100072.59;;;12.26;49.12
69879;BME280;57161;43.136;24.706;2022-12-29T12:11:54;100070.56;;;12.27;48.93
69879;BME280;57161;43.136;24.706;2022-12-29T12:14:25;100078.13;;;12.45;49.19
69879;BME280;57161;43.136;24.706;2022-12-29T12:17:35;100062.78;;;12.33;49.12
69879;BME280;57161;43.136;24.706;2022-12-29T12:19:58;100081.59;;;12.38;48.92
69879;BME280;57161;43.136;24.706;2022-12-29T12:22:31;100081.81;;;12.40;49.19
69879;BME280;57161;43.136;24.706;2022-12-29T12:25:23;100072.13;;;12.54;49.35
69879;BME280;57161;43.136;24.706;2022-12-29T12:30:45;100071.59;;;12.56;49.14
69879;BME280;57161;43.136;24.706;2022-12-29T12:43:40;100047.19;;;12.51;48.87
69879;BME280;57161;43.136;24.706;2022-12-29T12:51:38;100057.72;;;12.31;49.82
69879;BME280;57161;43.136;24.706;2022-12-29T12:57:34;100052.84;;;12.19;50.31
69879;BME280;57161;43.136;24.706;2022-12-29T13:00:11;100076.88;;;12.14;50.61
69879;BME280;57161;43.136;24.706;2022-12-29T13:13:50;100079.19;;;11.78;52.53
69879;BME280;57161;43.136;24.706;2022-12-29T13:21:40;100089.88;;;11.61;53.21
69879;BME280;57161;43.136;24.706;2022-12-29T13:29:30;100076.47;;;11.54;52.93
69879;BME280;57161;43.136;24.706;2022-12-29T13:37:27;100055.75;;;11.81;51.99
69879;BME280;57161;43.136;24.706;2022-12-29T13:39:59;100072.19;;;12.03;51.90
69879;BME280;57161;43.136;24.706;2022-12-29T13:42:27;100073.72;;;12.05;51.89
69879;BME280;57161;43.136;24.706;2022-12-29T13:45:05;100083.50;;;12.30;51.30
69879;BME280;57161;43.136;24.706;2022-12-29T13:50:45;100086.13;;;12.09;51.80
69879;BME280;57161;43.136;24.706;2022-12-29T13:53:41;100083.53;;;12.11;51.62
69879;BME280;57161;43.136;24.706;2022-12-29T13:56:20;100088.88;;;12.28;51.77
69879;BME280;57161;43.136;24.706;2022-12-29T13:58:54;100096.63;;;12.22;51.49
69879;BME280;57161;43.136;24.706;2022-12-29T14:04:00;100101.34;;;11.76;52.72
69879;BME280;57161;43.136;24.706;2022-12-29T14:06:31;100092.78;;;11.68;53.08
69879;BME280;57161;43.136;24.706;2022-12-29T14:09:02;100088.41;;;11.54;53.47
69879;BME280;57161;43.136;24.706;2022-12-29T14:11:36;100095.28;;;11.53;53.81
69879;BME280;57161;43.136;24.706;2022-12-29T14:14:25;100101.09;;;11.36;54.46
69879;BME280;57161;43.136;24.706;2022-12-29T14:16:53;100060.47;;;10.92;55.05
69879;BME280;57161;43.136;24.706;2022-12-29T14:19:30;100098.13;;;11.10;55.25
69879;BME280;57161;43.136;24.706;2022-12-29T14:22:02;100092.72;;;10.93;55.51
69879;BME280;57161;43.136;24.706;2022-12-29T14:27:00;100105.47;;;10.89;56.01
69879;BME280;57161;43.136;24.706;2022-12-29T14:31:54;100103.38;;;10.70;56.59
69879;BME280;57161;43.136;24.706;2022-12-29T14:36:53;100106.69;;;10.69;56.94
69879;BME280;57161;43.136;24.706;2022-12-29T14:44:26;100093.63;;;10.52;57.18
69879;BME280;57161;43.136;24.706;2022-12-29T14:46:58;100109.66;;;10.52;57.87
69879;BME280;57161;43.136;24.706;2022-12-29T14:49:31;100101.25;;;10.52;57.90
69879;BME280;57161;43.136;24.706;2022-12-29T14:52:24;100109.41;;;10.50;57.76
69879;BME280;57161;43.136;24.706;2022-12-29T14:54:51;100117.84;;;10.44;57.90
69879;BME280;57161;43.136;24.706;2022-12-29T14:57:22;100116.13;;;10.41;61.71